createdAt,value
2023-05-10T00:01:52.512Z,95656.06
2023-05-10T00:06:12.064Z,95655.00
2023-05-10T00:10:24.671Z,95650.47
2023-05-10T00:14:47.203Z,95643.69
2023-05-10T00:18:59.662Z,95644.25
2023-05-10T00:23:12.123Z,95648.78
2023-05-10T00:27:24.530Z,95630.63
2023-05-10T00:31:37.338Z,95644.50
2023-05-10T00:35:49.884Z,95632.09
2023-05-10T00:40:02.323Z,95639.94
2023-05-10T00:44:15.313Z,95639.69
2023-05-10T00:48:27.808Z,95627.78
2023-05-10T00:52:51.065Z,95627.25
2023-05-10T00:57:05.033Z,95636.66
2023-05-10T01:01:17.776Z,95621.28
2023-05-10T01:05:30.364Z,95591.09
2023-05-10T01:09:42.874Z,95622.53
2023-05-10T01:13:59.200Z,95624.25
2023-05-10T01:18:23.630Z,95611.88
2023-05-10T01:23:22.449Z,95622.47
2023-05-10T01:27:56.696Z,95619.41
2023-05-10T01:32:25.751Z,95625.00
2023-05-10T01:36:55.665Z,95626.94
2023-05-10T01:41:38.499Z,95633.53
2023-05-10T01:46:12.193Z,95620.16
2023-05-10T01:50:30.442Z,95623.25
2023-05-10T01:54:47.814Z,95622.72
2023-05-10T01:59:15.918Z,95628.19
2023-05-10T02:03:29.982Z,95623.41
2023-05-10T02:07:44.297Z,95620.81
2023-05-10T02:11:59.253Z,95624.41
2023-05-10T02:16:13.258Z,95624.63
2023-05-10T02:20:27.390Z,95620.13
2023-05-10T02:24:40.675Z,95627.09
2023-05-10T02:28:55.069Z,95625.91
2023-05-10T02:33:09.290Z,95629.66
2023-05-10T02:37:23.130Z,95629.66
2023-05-10T02:41:35.734Z,95626.38
2023-05-10T02:45:49.917Z,95623.41
2023-05-10T02:50:12.601Z,95631.16
2023-05-10T02:54:32.364Z,95604.81
2023-05-10T02:58:44.900Z,95633.63
2023-05-10T03:02:58.412Z,95629.16
2023-05-10T03:07:11.173Z,95635.38
2023-05-10T03:11:50.350Z,95627.63
2023-05-10T03:16:40.273Z,95634.13
2023-05-10T03:21:00.295Z,95643.75
2023-05-10T03:25:14.250Z,95642.44
2023-05-10T03:29:37.525Z,95647.34
2023-05-10T03:33:54.401Z,95639.47
2023-05-10T03:38:06.920Z,95647.59
2023-05-10T03:42:19.687Z,95659.09
2023-05-10T03:46:39.683Z,95648.09
2023-05-10T03:50:52.526Z,95652.06
2023-05-10T03:55:15.020Z,95656.78
2023-05-10T03:59:27.509Z,95657.09
2023-05-10T04:03:40.139Z,95653.00
2023-05-10T04:07:52.890Z,95661.16
2023-05-10T04:12:05.619Z,95659.47
2023-05-10T04:16:18.147Z,95661.44
2023-05-10T04:20:40.594Z,95664.25
2023-05-10T04:24:53.246Z,95661.78
2023-05-10T04:29:05.666Z,95667.34
2023-05-10T04:33:18.130Z,95666.56
2023-05-10T04:37:30.569Z,95658.00
2023-05-10T04:41:42.997Z,95673.44
2023-05-10T04:46:06.480Z,95672.59
2023-05-10T04:50:19.364Z,95673.28
2023-05-10T04:54:31.956Z,95682.84
2023-05-10T04:58:44.482Z,95682.06
2023-05-10T05:02:57.147Z,95684.84
2023-05-10T05:07:09.693Z,95675.13
2023-05-10T05:11:22.819Z,95709.50
2023-05-10T05:15:35.306Z,95712.47
2023-05-10T05:19:47.700Z,95708.66
2023-05-10T05:24:00.302Z,95707.94
2023-05-10T05:28:12.804Z,95711.41
2023-05-10T05:32:26.679Z,95696.50
2023-05-10T05:36:40.270Z,95718.38
2023-05-10T05:40:52.708Z,95726.22
2023-05-10T05:45:05.464Z,95736.00
2023-05-10T05:49:18.295Z,95738.78
2023-05-10T05:53:30.724Z,95733.28
2023-05-10T05:57:43.277Z,95743.94
2023-05-10T06:01:56.476Z,95730.56
2023-05-10T06:06:09.614Z,95754.25
2023-05-10T06:10:22.092Z,95756.50
2023-05-10T06:14:34.537Z,95773.06
2023-05-10T06:18:47.009Z,95761.88
2023-05-10T06:23:00.050Z,95780.44
2023-05-10T06:27:16.288Z,95785.72
2023-05-10T06:31:28.798Z,95791.72
2023-05-10T06:35:43.626Z,95793.56
2023-05-10T06:39:56.015Z,95798.94
2023-05-10T06:44:09.161Z,95792.56
2023-05-10T06:48:21.959Z,95791.97
2023-05-10T06:52:39.195Z,95801.50
2023-05-10T06:56:51.655Z,95792.31
2023-05-10T07:01:07.880Z,95799.34
2023-05-10T07:05:29.625Z,95793.91
2023-05-10T07:09:42.507Z,95804.63
2023-05-10T07:13:54.974Z,95808.97
2023-05-10T07:18:08.315Z,95806.34
2023-05-10T07:22:20.917Z,95810.63
2023-05-10T07:26:33.355Z,95813.06
2023-05-10T07:30:45.985Z,95809.84
2023-05-10T07:34:58.447Z,95810.59
2023-05-10T07:39:16.247Z,95808.66
2023-05-10T07:43:33.707Z,95806.56
2023-05-10T07:47:46.612Z,95814.97
2023-05-10T07:51:59.074Z,95815.44
2023-05-10T07:56:31.340Z,95810.69
2023-05-10T08:00:43.899Z,95806.06
2023-05-10T08:04:57.598Z,95807.97
2023-05-10T08:09:10.831Z,95815.16
2023-05-10T08:13:23.393Z,95812.88
2023-05-10T08:17:36.125Z,95821.69
2023-05-10T08:21:49.506Z,95812.41
2023-05-10T08:26:02.286Z,95825.59
2023-05-10T08:30:24.777Z,95831.78
2023-05-10T08:34:47.261Z,95824.59
2023-05-10T08:39:22.912Z,95834.72
2023-05-10T08:43:43.451Z,95829.88
2023-05-10T08:47:56.155Z,95830.19
2023-05-10T08:52:10.113Z,95821.66
2023-05-10T08:56:22.728Z,95827.63
2023-05-10T09:00:36.763Z,95834.72
2023-05-10T09:04:50.751Z,95823.84
2023-05-10T09:09:05.013Z,95824.84
2023-05-10T09:13:19.146Z,95835.53
2023-05-10T09:17:32.227Z,95831.19
2023-05-10T09:21:45.193Z,95832.47
2023-05-10T09:26:07.405Z,95833.22
2023-05-10T09:30:30.191Z,95831.16
2023-05-10T09:34:42.961Z,95839.75
2023-05-10T09:38:55.477Z,95841.34
2023-05-10T09:43:12.596Z,95807.19
2023-05-10T09:47:30.479Z,95842.03
2023-05-10T09:51:45.364Z,95839.13
2023-05-10T09:55:57.799Z,95846.78
2023-05-10T10:00:14.954Z,95809.25
2023-05-10T10:04:27.663Z,95835.84
2023-05-10T10:08:40.249Z,95837.94
2023-05-10T10:13:04.045Z,95834.47
2023-05-10T10:17:17.218Z,95829.34
2023-05-10T10:21:30.315Z,95824.91
2023-05-10T10:25:46.140Z,95825.06
2023-05-10T10:30:47.849Z,95828.28
2023-05-10T10:35:11.022Z,95813.44
2023-05-10T10:39:32.970Z,95823.63
2023-05-10T10:43:45.874Z,95826.41
2023-05-10T10:48:26.777Z,95819.31
2023-05-10T10:52:41.721Z,95804.09
2023-05-10T10:57:17.215Z,95819.19
2023-05-10T11:01:37.019Z,95797.53
2023-05-10T11:06:00.465Z,95812.97
2023-05-10T11:10:13.102Z,95806.13
2023-05-10T11:14:25.970Z,95797.63
2023-05-10T11:19:12.725Z,95809.91
2023-05-10T11:23:30.612Z,95811.88
2023-05-10T11:27:43.939Z,95809.78
2023-05-10T11:32:00.562Z,95818.91
2023-05-10T11:36:16.527Z,95803.81
2023-05-10T11:40:29.007Z,95827.63
2023-05-10T11:44:42.527Z,95824.97
2023-05-10T11:48:59.573Z,95826.91
2023-05-10T11:53:12.060Z,95813.50
2023-05-10T11:57:30.249Z,95832.00
2023-05-10T12:01:43.509Z,95843.34
2023-05-10T12:05:57.769Z,95834.78
2023-05-10T12:10:19.509Z,95836.28
2023-05-10T12:14:36.880Z,95852.47
2023-05-10T12:18:58.399Z,95842.59
2023-05-10T12:23:22.441Z,95845.16
2023-05-10T12:27:34.923Z,95859.59
2023-05-10T12:32:01.673Z,95856.28
2023-05-10T12:36:17.647Z,95838.50
2023-05-10T12:40:30.698Z,95882.75
2023-05-10T12:44:58.412Z,95892.00
2023-05-10T12:49:10.958Z,95905.28
2023-05-10T12:53:24.324Z,95890.72
2023-05-10T12:57:36.789Z,95910.09
2023-05-10T13:01:49.291Z,95896.19
2023-05-10T13:06:02.002Z,95879.84
2023-05-10T13:10:19.710Z,95909.72
2023-05-10T13:14:33.039Z,95887.22
2023-05-10T13:18:45.634Z,95903.84
2023-05-10T13:22:58.154Z,95894.28
2023-05-10T13:27:10.778Z,95902.25
2023-05-10T13:31:27.065Z,95894.38
2023-05-10T13:35:39.620Z,95901.03
2023-05-10T13:39:52.178Z,95900.66
2023-05-10T13:44:04.673Z,95911.59
2023-05-10T13:48:17.405Z,95897.06
2023-05-10T13:52:29.927Z,95914.06
2023-05-10T13:56:44.254Z,95900.28
2023-05-10T14:00:57.737Z,95903.09
2023-05-10T14:05:10.507Z,95907.78
2023-05-10T14:09:33.187Z,95901.78
2023-05-10T14:13:45.588Z,95866.91
2023-05-10T14:17:58.088Z,95894.78
2023-05-10T14:22:17.935Z,95905.66
2023-05-10T14:26:30.409Z,95888.41
2023-05-10T14:30:42.908Z,95904.78
2023-05-10T14:34:56.717Z,95910.53
2023-05-10T14:39:09.752Z,95915.31
2023-05-10T14:43:22.260Z,95907.53
2023-05-10T14:47:39.609Z,95904.66
2023-05-10T14:51:52.195Z,95908.97
2023-05-10T14:56:04.858Z,95906.22
2023-05-10T15:00:18.192Z,95914.81
2023-05-10T15:04:41.282Z,95907.25
2023-05-10T15:08:54.167Z,95912.06
2023-05-10T15:13:06.856Z,95895.56
2023-05-10T15:17:22.507Z,95920.66
2023-05-10T15:21:40.461Z,95934.09
2023-05-10T15:25:57.169Z,95939.09
2023-05-10T15:30:10.587Z,95923.31
2023-05-10T15:34:23.039Z,95948.00
2023-05-10T15:38:35.661Z,95940.00
2023-05-10T15:42:48.206Z,95951.25
2023-05-10T15:47:00.724Z,95954.66
2023-05-10T15:51:13.329Z,95910.22
2023-05-10T15:55:30.480Z,95955.09
2023-05-10T15:59:43.730Z,95953.88
2023-05-10T16:03:56.301Z,95960.28
2023-05-10T16:08:08.754Z,95962.09
2023-05-10T16:12:21.313Z,95964.66
2023-05-10T16:16:33.834Z,95970.91
2023-05-10T16:20:46.623Z,95977.28
2023-05-10T16:24:59.918Z,95985.81
2023-05-10T16:29:12.484Z,95989.69
2023-05-10T16:33:24.893Z,95992.63
2023-05-10T16:37:37.437Z,95997.31
2023-05-10T16:41:49.853Z,96001.31
2023-05-10T16:46:02.394Z,96008.41
2023-05-10T16:50:15.745Z,96000.75
2023-05-10T16:54:30.115Z,96011.91
2023-05-10T16:58:42.809Z,96019.47
2023-05-10T17:02:55.493Z,96007.56
2023-05-10T17:07:19.805Z,96012.28
2023-05-10T17:11:42.934Z,96016.13
2023-05-10T17:15:55.458Z,96022.16
2023-05-10T17:20:09.629Z,96024.31
2023-05-10T17:24:22.069Z,96028.56
2023-05-10T17:28:34.482Z,96035.41
2023-05-10T17:32:56.297Z,96027.97
2023-05-10T17:37:10.157Z,96035.81
2023-05-10T17:41:22.669Z,96036.28
2023-05-10T17:45:44.882Z,96040.41
2023-05-10T17:50:08.225Z,96041.19
2023-05-10T17:54:20.697Z,96057.25
2023-05-10T17:58:33.147Z,96061.03
2023-05-10T18:02:45.605Z,96051.09
2023-05-10T18:07:02.047Z,96055.44
2023-05-10T18:11:14.682Z,96040.56
2023-05-10T18:15:36.469Z,96059.38
2023-05-10T18:19:48.928Z,96067.84
2023-05-10T18:24:01.699Z,96074.22
2023-05-10T18:28:14.368Z,96072.81
2023-05-10T18:32:27.107Z,96070.03
2023-05-10T18:36:39.654Z,96069.22
2023-05-10T18:40:52.104Z,96063.84
2023-05-10T18:45:05.343Z,96068.94
2023-05-10T18:49:30.010Z,96060.59
2023-05-10T18:53:42.571Z,96064.88
2023-05-10T18:57:55.071Z,96074.03
2023-05-10T19:02:08.192Z,96078.50
2023-05-10T19:06:20.763Z,96074.03
2023-05-10T19:10:33.901Z,96075.72
2023-05-10T19:14:46.354Z,96079.56
2023-05-10T19:19:01.306Z,96078.53
2023-05-10T19:23:15.993Z,96073.53
2023-05-10T19:27:28.462Z,96091.97
2023-05-10T19:31:41.100Z,96085.19
2023-05-10T19:36:04.024Z,96086.69
2023-05-10T19:40:18.082Z,96075.56
2023-05-10T19:44:30.560Z,96091.28
2023-05-10T19:48:43.092Z,96088.56
2023-05-10T19:52:55.546Z,96089.59
2023-05-10T19:57:07.996Z,96088.53
2023-05-10T20:01:20.469Z,96093.59
2023-05-10T20:05:36.565Z,96085.69
2023-05-10T20:09:49.109Z,96097.19
2023-05-10T20:14:01.649Z,96063.69
2023-05-10T20:18:21.363Z,96101.00
2023-05-10T20:22:34.674Z,96101.97
2023-05-10T20:26:47.312Z,96084.88
2023-05-10T20:31:01.327Z,96102.59
2023-05-10T20:35:13.808Z,96106.72
2023-05-10T20:39:26.213Z,96104.88
2023-05-10T20:43:38.641Z,96096.44
2023-05-10T20:47:51.083Z,96095.13
2023-05-10T20:52:03.574Z,96098.16
2023-05-10T20:56:27.608Z,96090.03
2023-05-10T21:00:50.068Z,96088.81
2023-05-10T21:05:02.680Z,96073.03
2023-05-10T21:09:15.146Z,96079.28
2023-05-10T21:13:27.602Z,96067.41
2023-05-10T21:17:40.143Z,96069.34
2023-05-10T21:21:52.765Z,96071.19
2023-05-10T21:26:05.765Z,96068.91
2023-05-10T21:30:18.425Z,96061.97
2023-05-10T21:34:32.278Z,96047.00
2023-05-10T21:38:45.387Z,96058.50
2023-05-10T21:42:58.681Z,96056.78
2023-05-10T21:47:11.587Z,96056.34
2023-05-10T21:51:24.077Z,96049.22
2023-05-10T21:55:36.675Z,96050.66
2023-05-10T21:59:49.082Z,96054.81
2023-05-10T22:04:01.617Z,96063.56
2023-05-10T22:08:14.199Z,96059.75
2023-05-10T22:12:27.348Z,96047.81
2023-05-10T22:16:39.817Z,96048.72
2023-05-10T22:21:02.241Z,96050.25
2023-05-10T22:25:15.894Z,96057.03
2023-05-10T22:29:28.415Z,96063.63
2023-05-10T22:33:41.077Z,96030.22
2023-05-10T22:37:53.550Z,96048.44
2023-05-10T22:42:06.093Z,96046.31
2023-05-10T22:46:18.635Z,96039.41
2023-05-10T22:50:31.932Z,96052.56
2023-05-10T22:54:45.059Z,96050.13
2023-05-10T22:58:58.386Z,96045.81
2023-05-10T23:03:10.940Z,96053.03
2023-05-10T23:07:23.652Z,96042.31
2023-05-10T23:11:36.444Z,96045.22
2023-05-10T23:15:50.295Z,96054.56
2023-05-10T23:20:02.812Z,96053.91
2023-05-10T23:24:15.282Z,96043.53
2023-05-10T23:28:27.753Z,96050.88
2023-05-10T23:32:40.228Z,96053.66
2023-05-10T23:36:52.763Z,96058.28
2023-05-10T23:41:05.468Z,96049.38
2023-05-10T23:45:18.047Z,96055.38
2023-05-10T23:49:30.882Z,96048.78
2023-05-10T23:53:43.313Z,96041.84
2023-05-10T23:57:55.726Z,96046.19
